Earl Gonsoulin — WDC3306 — position and weather

sailwx.info

Track history (hours):
 
Tides and Currents Weather Stations Pressure Air Temp Water Temp Dewpoint Dewpoint Depression Visibility Wind Speed Wind Dir Waves Ship Positions

Earl Gonsoulin

Owner: LeBeouf Bros. Towing, L.L.C., Houma, LA. More information available from US FCC via Universal Licensing System and Coast Guard Vessel Documentation Center.

Last reported at 2017-Jan-02 12:13 UTC. Time now 2017-Jan-19 02:27 UTC.
Position N 29°57' W 090°18'.
Warning: this ship's position is 16 days out of date.

Length 21 m; draft 3 m.

Type: Tug. MMSI: 367005550.

Date/timePositionNaut miles runAvg speedWind from/ knotsBaromVisibWave heightAir tempDewpointWater temp
2017-Jan-02 12:13N 29°57' W 090°18'3 3.9
2017-Jan-02 11:33N 29°58' W 090°16'4 3.9
2017-Jan-02 10:33N 29°55' W 090°12'3 3.4
2017-Jan-02 09:33N 29°56' W 090°08'4 3.4
2017-Jan-02 08:23N 29°55' W 090°04'  
2016-Dec-30 18:28N 29°48' W 091°49'5 5.5
2016-Dec-30 17:33N 29°51' W 091°54'7 6.8
2016-Dec-30 16:33N 29°49' W 092°02'7 6.7
2016-Dec-30 15:33N 29°47' W 092°09'4 4.4
2016-Dec-30 14:33N 29°48' W 092°14'4 3.8
2016-Dec-30 13:33N 29°50' W 092°18'6 6.1
2016-Dec-30 12:33N 29°53' W 092°24'7 7.0
2016-Dec-30 11:32N 29°54' W 092°32'6 6.6
2016-Dec-30 10:33N 29°56' W 092°39'24 5.4
2016-Dec-30 06:08N 29°56' W 093°07'2 4.2
2016-Dec-30 05:33N 29°56' W 093°10'3 2.7
2016-Dec-30 04:33N 29°58' W 093°12'6 5.7
2016-Dec-30 03:33N 30°03' W 093°16'4 3.6
2016-Dec-30 02:33N 30°06' W 093°18'0 0.1
2016-Dec-30 01:33N 30°06' W 093°18'1 0.6
2016-Dec-30 00:33N 30°06' W 093°19'0 0.0
2016-Dec-29 23:33N 30°06' W 093°19'3 2.6
2016-Dec-29 22:33N 30°08' W 093°20'6 5.8
2016-Dec-29 21:33N 30°13' W 093°16'1 0.7
2016-Dec-29 20:33N 30°14' W 093°16'0 0.0
2016-Dec-29 19:33N 30°14' W 093°16'0 0.0
2016-Dec-29 18:33N 30°14' W 093°16'0 0.0
2016-Dec-29 17:33N 30°14' W 093°16'0 0.0
2016-Dec-29 16:33N 30°14' W 093°16'0 0.0
2016-Dec-29 15:33N 30°14' W 093°16'0 0.0
2016-Dec-29 14:33N 30°14' W 093°16'0 0.0
2016-Dec-29 13:33N 30°14' W 093°16'0 0.0
2016-Dec-29 12:33N 30°14' W 093°16'0 0.0
2016-Dec-29 11:33N 30°14' W 093°16'0 0.0
2016-Dec-29 10:33N 30°14' W 093°16'0 0.0
2016-Dec-29 09:33N 30°14' W 093°16'0 0.0
2016-Dec-29 08:33N 30°14' W 093°16'0 0.0
2016-Dec-29 07:33N 30°14' W 093°16'0 0.0
2016-Dec-29 06:33N 30°14' W 093°16'0 0.0
2016-Dec-29 05:33N 30°14' W 093°16'0 0.0
2016-Dec-29 04:33N 30°14' W 093°16'0 0.0
2016-Dec-29 03:33N 30°14' W 093°16'0 0.0
2016-Dec-29 02:33N 30°14' W 093°16'0 0.0
2016-Dec-29 01:33N 30°14' W 093°16'0 0.0
2016-Dec-29 00:33N 30°14' W 093°16'0 0.0
2016-Dec-28 23:33N 30°14' W 093°16'0 0.0
2016-Dec-28 22:33N 30°14' W 093°16'0 0.0
2016-Dec-28 21:33N 30°14' W 093°16'0 0.0
2016-Dec-28 20:33N 30°14' W 093°16'0 0.0
2016-Dec-28 19:33N 30°14' W 093°16'0 0.0
2016-Dec-28 18:33N 30°14' W 093°16'0 0.0
2016-Dec-28 17:33N 30°14' W 093°16'0 0.0
2016-Dec-28 16:33N 30°14' W 093°16'0 0.0
2016-Dec-28 15:33N 30°14' W 093°16'0 0.0
2016-Dec-28 14:33N 30°14' W 093°16'0 0.0
2016-Dec-28 13:33N 30°14' W 093°16'0 0.0
2016-Dec-28 12:33N 30°14' W 093°16'0 0.0
2016-Dec-28 11:33N 30°14' W 093°16'0 0.0
2016-Dec-28 10:33N 30°14' W 093°16'0 0.0
2016-Dec-28 09:33N 30°14' W 093°16'0 0.0
2016-Dec-28 08:33N 30°14' W 093°16'0 0.0
2016-Dec-28 07:33N 30°14' W 093°16'0 0.0
2016-Dec-28 06:33N 30°14' W 093°16'0 0.0
2016-Dec-28 05:33N 30°14' W 093°16'0 0.0
2016-Dec-28 04:33N 30°14' W 093°16'0 0.0
2016-Dec-28 03:33N 30°14' W 093°16'0 0.0
2016-Dec-28 02:33N 30°14' W 093°16'0 0.0
2016-Dec-28 01:33N 30°14' W 093°16'0 0.0
2016-Dec-28 00:33N 30°14' W 093°16'0 0.0
2016-Dec-27 23:33N 30°14' W 093°16'0 0.0
2016-Dec-27 22:33N 30°14' W 093°16'0 0.0
2016-Dec-27 21:33N 30°14' W 093°16'0 0.0
2016-Dec-27 20:33N 30°14' W 093°16'0 0.0
2016-Dec-27 19:33N 30°14' W 093°16'0 0.0
2016-Dec-27 18:33N 30°14' W 093°16'0 0.0
2016-Dec-27 17:33N 30°14' W 093°16'0 0.0
2016-Dec-27 16:33N 30°14' W 093°16'0 0.0
2016-Dec-27 15:33N 30°14' W 093°16'0 0.0
2016-Dec-27 14:33N 30°14' W 093°16'0 0.0
2016-Dec-27 13:33N 30°14' W 093°16'0 0.0
2016-Dec-27 12:33N 30°14' W 093°16'0 0.0
2016-Dec-27 11:33N 30°14' W 093°16'0 0.0
2016-Dec-27 10:33N 30°14' W 093°16'0 0.0
2016-Dec-27 09:33N 30°14' W 093°16'0 0.0
2016-Dec-27 08:33N 30°14' W 093°16'0 0.0
2016-Dec-27 07:33N 30°14' W 093°16'0 0.0
2016-Dec-27 06:33N 30°14' W 093°16'0 0.0
2016-Dec-27 05:33N 30°14' W 093°16'0 0.0
2016-Dec-27 04:33N 30°14' W 093°16'0 0.0
2016-Dec-27 03:33N 30°14' W 093°16'0 0.0
2016-Dec-27 02:33N 30°14' W 093°16'0 0.0
2016-Dec-27 01:33N 30°14' W 093°16'0 0.0
2016-Dec-27 00:33N 30°14' W 093°16'0 0.0
2016-Dec-26 23:33N 30°14' W 093°16'0 0.0
2016-Dec-26 22:33N 30°14' W 093°16'0 0.0
2016-Dec-26 21:33N 30°14' W 093°16'0 0.0
2016-Dec-26 20:33N 30°14' W 093°16'0 0.0
2016-Dec-26 19:33N 30°14' W 093°16'0 0.0
2016-Dec-26 18:33N 30°14' W 093°16'0 0.0
2016-Dec-26 17:33N 30°14' W 093°16'0 0.0
2016-Dec-26 16:33N 30°14' W 093°16'0 0.0
2016-Dec-26 15:33N 30°14' W 093°16'0 0.0
2016-Dec-26 14:33N 30°14' W 093°16'0 0.0
2016-Dec-26 13:33N 30°14' W 093°16'0 0.0
2016-Dec-26 12:33N 30°14' W 093°16'0 0.0
2016-Dec-26 11:33N 30°14' W 093°16'0 0.0
2016-Dec-26 10:33N 30°14' W 093°16'0 0.0
2016-Dec-26 09:33N 30°14' W 093°16'0 0.0
2016-Dec-26 08:33N 30°14' W 093°16'0 0.0
2016-Dec-26 07:33N 30°14' W 093°16'0 0.0
2016-Dec-26 06:33N 30°14' W 093°16'0 0.0
2016-Dec-26 05:33N 30°14' W 093°16'0 0.0
2016-Dec-26 04:33N 30°14' W 093°16'0 0.0
2016-Dec-26 03:33N 30°14' W 093°16'0 0.0
2016-Dec-26 02:33N 30°14' W 093°16'0 0.0
2016-Dec-26 01:33N 30°14' W 093°16'0 0.0
2016-Dec-26 00:33N 30°14' W 093°16'0 0.0
2016-Dec-25 23:33N 30°14' W 093°16'0 0.0
2016-Dec-25 22:33N 30°14' W 093°16'0 0.0
2016-Dec-25 21:33N 30°14' W 093°16'0 0.0
2016-Dec-25 20:33N 30°14' W 093°16'0 0.0
2016-Dec-25 19:33N 30°14' W 093°16'0 0.0
2016-Dec-25 18:33N 30°14' W 093°16'0 0.0
2016-Dec-25 17:33N 30°14' W 093°16'0 0.0
2016-Dec-25 16:33N 30°14' W 093°16'0 0.0
2016-Dec-25 15:33N 30°14' W 093°16'0 0.0
2016-Dec-25 14:33N 30°14' W 093°16'0 0.0
2016-Dec-25 13:33N 30°14' W 093°16'0 0.0
2016-Dec-25 12:33N 30°14' W 093°16'0 0.0
2016-Dec-25 11:33N 30°14' W 093°16'0 0.0
2016-Dec-25 10:33N 30°14' W 093°16'0 0.0
2016-Dec-25 09:33N 30°14' W 093°16'0 0.0
2016-Dec-25 08:33N 30°14' W 093°16'0 0.0
2016-Dec-25 07:33N 30°14' W 093°16'0 0.0
2016-Dec-25 06:33N 30°14' W 093°16'0 0.0
2016-Dec-25 05:33N 30°14' W 093°16'0 0.0
2016-Dec-25 04:33N 30°14' W 093°16'0 0.0
2016-Dec-25 03:33N 30°14' W 093°16'0 0.0
2016-Dec-25 02:33N 30°14' W 093°16'0 0.0
2016-Dec-25 01:33N 30°14' W 093°16'0 0.0
2016-Dec-25 00:33N 30°14' W 093°16'0 0.0
2016-Dec-24 23:33N 30°14' W 093°16'0 0.0
2016-Dec-24 22:33N 30°14' W 093°16'0 0.3
2016-Dec-24 21:33N 30°14' W 093°15'0 0.1
2016-Dec-24 20:33N 30°14' W 093°15'0 0.0
2016-Dec-24 19:33N 30°14' W 093°15'0 0.0
2016-Dec-24 18:33N 30°14' W 093°15'0 0.0
2016-Dec-24 17:33N 30°14' W 093°15'0 0.0
2016-Dec-24 16:33N 30°14' W 093°15'0 0.0
2016-Dec-24 15:33N 30°14' W 093°15'0 0.0
2016-Dec-24 14:33N 30°14' W 093°15'0 0.0
2016-Dec-24 13:33N 30°14' W 093°15'0 0.0
2016-Dec-24 12:33N 30°14' W 093°15'0 0.0
2016-Dec-24 11:33N 30°14' W 093°15'0 0.0
2016-Dec-24 10:33N 30°14' W 093°15'0 0.0
2016-Dec-24 09:33N 30°14' W 093°15'0 0.0
2016-Dec-24 08:33N 30°14' W 093°15'0 0.0
2016-Dec-24 07:33N 30°14' W 093°15'0 0.0
2016-Dec-24 06:32N 30°14' W 093°15'0 0.0
2016-Dec-24 05:33N 30°14' W 093°15'0 0.0
2016-Dec-24 04:33N 30°14' W 093°15'0 0.0
2016-Dec-24 03:33N 30°14' W 093°15'3 2.7
2016-Dec-24 02:33N 30°12' W 093°17'5 5.1
2016-Dec-24 01:33N 30°07' W 093°20'2 2.4
2016-Dec-24 00:33N 30°05' W 093°20'0 0.0
2016-Dec-23 23:33N 30°05' W 093°20'0 0.0
2016-Dec-23 22:33N 30°05' W 093°20'0 0.0
2016-Dec-23 21:33N 30°05' W 093°20'0 0.1
2016-Dec-23 20:33N 30°05' W 093°20'2 1.7
2016-Dec-23 19:33N 30°06' W 093°18'3 3.5
2016-Dec-23 18:33N 30°03' W 093°16'4 4.3
2016-Dec-23 17:33N 29°60' W 093°13'5 4.8
2016-Dec-23 16:33N 29°56' W 093°10'5 4.5
2016-Dec-23 15:33N 29°56' W 093°04'  
Track history (hours):
 
Tides and Currents Weather Stations Pressure Air Temp Water Temp Dewpoint Dewpoint Depression Visibility Wind Speed Wind Dir Waves Ship Positions

Earl Gonsoulin

Owner: LeBeouf Bros. Towing, L.L.C., Houma, LA. More information available from US FCC via Universal Licensing System and Coast Guard Vessel Documentation Center.

Last reported at 2017-Jan-02 12:13 UTC. Time now 2017-Jan-19 02:27 UTC.
Position N 29°57' W 090°18'.
Warning: this ship's position is 16 days out of date.

Length 21 m; draft 3 m.

Type: Tug. MMSI: 367005550.

Date/timePositionNaut miles runAvg speedWind from/ knotsBaromVisibWave heightAir tempDewpointWater temp
2017-Jan-02 12:13N 29°57' W 090°18'3 3.9
2017-Jan-02 11:33N 29°58' W 090°16'4 3.9
2017-Jan-02 10:33N 29°55' W 090°12'3 3.4
2017-Jan-02 09:33N 29°56' W 090°08'4 3.4
2017-Jan-02 08:23N 29°55' W 090°04'  
2016-Dec-30 18:28N 29°48' W 091°49'5 5.5
2016-Dec-30 17:33N 29°51' W 091°54'7 6.8
2016-Dec-30 16:33N 29°49' W 092°02'7 6.7
2016-Dec-30 15:33N 29°47' W 092°09'4 4.4
2016-Dec-30 14:33N 29°48' W 092°14'4 3.8
2016-Dec-30 13:33N 29°50' W 092°18'6 6.1
2016-Dec-30 12:33N 29°53' W 092°24'7 7.0
2016-Dec-30 11:32N 29°54' W 092°32'6 6.6
2016-Dec-30 10:33N 29°56' W 092°39'24 5.4
2016-Dec-30 06:08N 29°56' W 093°07'2 4.2
2016-Dec-30 05:33N 29°56' W 093°10'3 2.7
2016-Dec-30 04:33N 29°58' W 093°12'6 5.7
2016-Dec-30 03:33N 30°03' W 093°16'4 3.6
2016-Dec-30 02:33N 30°06' W 093°18'0 0.1
2016-Dec-30 01:33N 30°06' W 093°18'1 0.6
2016-Dec-30 00:33N 30°06' W 093°19'0 0.0
2016-Dec-29 23:33N 30°06' W 093°19'3 2.6
2016-Dec-29 22:33N 30°08' W 093°20'6 5.8
2016-Dec-29 21:33N 30°13' W 093°16'1 0.7
2016-Dec-29 20:33N 30°14' W 093°16'0 0.0
2016-Dec-29 19:33N 30°14' W 093°16'0 0.0
2016-Dec-29 18:33N 30°14' W 093°16'0 0.0
2016-Dec-29 17:33N 30°14' W 093°16'0 0.0
2016-Dec-29 16:33N 30°14' W 093°16'0 0.0
2016-Dec-29 15:33N 30°14' W 093°16'0 0.0
2016-Dec-29 14:33N 30°14' W 093°16'0 0.0
2016-Dec-29 13:33N 30°14' W 093°16'0 0.0
2016-Dec-29 12:33N 30°14' W 093°16'0 0.0
2016-Dec-29 11:33N 30°14' W 093°16'0 0.0
2016-Dec-29 10:33N 30°14' W 093°16'0 0.0
2016-Dec-29 09:33N 30°14' W 093°16'0 0.0
2016-Dec-29 08:33N 30°14' W 093°16'0 0.0
2016-Dec-29 07:33N 30°14' W 093°16'0 0.0
2016-Dec-29 06:33N 30°14' W 093°16'0 0.0
2016-Dec-29 05:33N 30°14' W 093°16'0 0.0
2016-Dec-29 04:33N 30°14' W 093°16'0 0.0
2016-Dec-29 03:33N 30°14' W 093°16'0 0.0
2016-Dec-29 02:33N 30°14' W 093°16'0 0.0
2016-Dec-29 01:33N 30°14' W 093°16'0 0.0
2016-Dec-29 00:33N 30°14' W 093°16'0 0.0
2016-Dec-28 23:33N 30°14' W 093°16'0 0.0
2016-Dec-28 22:33N 30°14' W 093°16'0 0.0
2016-Dec-28 21:33N 30°14' W 093°16'0 0.0
2016-Dec-28 20:33N 30°14' W 093°16'0 0.0
2016-Dec-28 19:33N 30°14' W 093°16'0 0.0
2016-Dec-28 18:33N 30°14' W 093°16'0 0.0
2016-Dec-28 17:33N 30°14' W 093°16'0 0.0
2016-Dec-28 16:33N 30°14' W 093°16'0 0.0
2016-Dec-28 15:33N 30°14' W 093°16'0 0.0
2016-Dec-28 14:33N 30°14' W 093°16'0 0.0
2016-Dec-28 13:33N 30°14' W 093°16'0 0.0
2016-Dec-28 12:33N 30°14' W 093°16'0 0.0
2016-Dec-28 11:33N 30°14' W 093°16'0 0.0
2016-Dec-28 10:33N 30°14' W 093°16'0 0.0
2016-Dec-28 09:33N 30°14' W 093°16'0 0.0
2016-Dec-28 08:33N 30°14' W 093°16'0 0.0
2016-Dec-28 07:33N 30°14' W 093°16'0 0.0
2016-Dec-28 06:33N 30°14' W 093°16'0 0.0
2016-Dec-28 05:33N 30°14' W 093°16'0 0.0
2016-Dec-28 04:33N 30°14' W 093°16'0 0.0
2016-Dec-28 03:33N 30°14' W 093°16'0 0.0
2016-Dec-28 02:33N 30°14' W 093°16'0 0.0
2016-Dec-28 01:33N 30°14' W 093°16'0 0.0
2016-Dec-28 00:33N 30°14' W 093°16'0 0.0
2016-Dec-27 23:33N 30°14' W 093°16'0 0.0
2016-Dec-27 22:33N 30°14' W 093°16'0 0.0
2016-Dec-27 21:33N 30°14' W 093°16'0 0.0
2016-Dec-27 20:33N 30°14' W 093°16'0 0.0
2016-Dec-27 19:33N 30°14' W 093°16'0 0.0
2016-Dec-27 18:33N 30°14' W 093°16'0 0.0
2016-Dec-27 17:33N 30°14' W 093°16'0 0.0
2016-Dec-27 16:33N 30°14' W 093°16'0 0.0
2016-Dec-27 15:33N 30°14' W 093°16'0 0.0
2016-Dec-27 14:33N 30°14' W 093°16'0 0.0
2016-Dec-27 13:33N 30°14' W 093°16'0 0.0
2016-Dec-27 12:33N 30°14' W 093°16'0 0.0
2016-Dec-27 11:33N 30°14' W 093°16'0 0.0
2016-Dec-27 10:33N 30°14' W 093°16'0 0.0
2016-Dec-27 09:33N 30°14' W 093°16'0 0.0
2016-Dec-27 08:33N 30°14' W 093°16'0 0.0
2016-Dec-27 07:33N 30°14' W 093°16'0 0.0
2016-Dec-27 06:33N 30°14' W 093°16'0 0.0
2016-Dec-27 05:33N 30°14' W 093°16'0 0.0
2016-Dec-27 04:33N 30°14' W 093°16'0 0.0
2016-Dec-27 03:33N 30°14' W 093°16'0 0.0
2016-Dec-27 02:33N 30°14' W 093°16'0 0.0
2016-Dec-27 01:33N 30°14' W 093°16'0 0.0
2016-Dec-27 00:33N 30°14' W 093°16'0 0.0
2016-Dec-26 23:33N 30°14' W 093°16'0 0.0
2016-Dec-26 22:33N 30°14' W 093°16'0 0.0
2016-Dec-26 21:33N 30°14' W 093°16'0 0.0
2016-Dec-26 20:33N 30°14' W 093°16'0 0.0
2016-Dec-26 19:33N 30°14' W 093°16'0 0.0
2016-Dec-26 18:33N 30°14' W 093°16'0 0.0
2016-Dec-26 17:33N 30°14' W 093°16'0 0.0
2016-Dec-26 16:33N 30°14' W 093°16'0 0.0
2016-Dec-26 15:33N 30°14' W 093°16'0 0.0
2016-Dec-26 14:33N 30°14' W 093°16'0 0.0
2016-Dec-26 13:33N 30°14' W 093°16'0 0.0
2016-Dec-26 12:33N 30°14' W 093°16'0 0.0
2016-Dec-26 11:33N 30°14' W 093°16'0 0.0
2016-Dec-26 10:33N 30°14' W 093°16'0 0.0
2016-Dec-26 09:33N 30°14' W 093°16'0 0.0
2016-Dec-26 08:33N 30°14' W 093°16'0 0.0
2016-Dec-26 07:33N 30°14' W 093°16'0 0.0
2016-Dec-26 06:33N 30°14' W 093°16'0 0.0
2016-Dec-26 05:33N 30°14' W 093°16'0 0.0
2016-Dec-26 04:33N 30°14' W 093°16'0 0.0
2016-Dec-26 03:33N 30°14' W 093°16'0 0.0
2016-Dec-26 02:33N 30°14' W 093°16'0 0.0
2016-Dec-26 01:33N 30°14' W 093°16'0 0.0
2016-Dec-26 00:33N 30°14' W 093°16'0 0.0
2016-Dec-25 23:33N 30°14' W 093°16'0 0.0
2016-Dec-25 22:33N 30°14' W 093°16'0 0.0
2016-Dec-25 21:33N 30°14' W 093°16'0 0.0
2016-Dec-25 20:33N 30°14' W 093°16'0 0.0
2016-Dec-25 19:33N 30°14' W 093°16'0 0.0
2016-Dec-25 18:33N 30°14' W 093°16'0 0.0
2016-Dec-25 17:33N 30°14' W 093°16'0 0.0
2016-Dec-25 16:33N 30°14' W 093°16'0 0.0
2016-Dec-25 15:33N 30°14' W 093°16'0 0.0
2016-Dec-25 14:33N 30°14' W 093°16'0 0.0
2016-Dec-25 13:33N 30°14' W 093°16'0 0.0
2016-Dec-25 12:33N 30°14' W 093°16'0 0.0
2016-Dec-25 11:33N 30°14' W 093°16'0 0.0
2016-Dec-25 10:33N 30°14' W 093°16'0 0.0
2016-Dec-25 09:33N 30°14' W 093°16'0 0.0
2016-Dec-25 08:33N 30°14' W 093°16'0 0.0
2016-Dec-25 07:33N 30°14' W 093°16'0 0.0
2016-Dec-25 06:33N 30°14' W 093°16'0 0.0
2016-Dec-25 05:33N 30°14' W 093°16'0 0.0
2016-Dec-25 04:33N 30°14' W 093°16'0 0.0
2016-Dec-25 03:33N 30°14' W 093°16'0 0.0
2016-Dec-25 02:33N 30°14' W 093°16'0 0.0
2016-Dec-25 01:33N 30°14' W 093°16'0 0.0
2016-Dec-25 00:33N 30°14' W 093°16'0 0.0
2016-Dec-24 23:33N 30°14' W 093°16'0 0.0
2016-Dec-24 22:33N 30°14' W 093°16'0 0.3
2016-Dec-24 21:33N 30°14' W 093°15'0 0.1
2016-Dec-24 20:33N 30°14' W 093°15'0 0.0
2016-Dec-24 19:33N 30°14' W 093°15'0 0.0
2016-Dec-24 18:33N 30°14' W 093°15'0 0.0
2016-Dec-24 17:33N 30°14' W 093°15'0 0.0
2016-Dec-24 16:33N 30°14' W 093°15'0 0.0
2016-Dec-24 15:33N 30°14' W 093°15'0 0.0
2016-Dec-24 14:33N 30°14' W 093°15'0 0.0
2016-Dec-24 13:33N 30°14' W 093°15'0 0.0
2016-Dec-24 12:33N 30°14' W 093°15'0 0.0
2016-Dec-24 11:33N 30°14' W 093°15'0 0.0
2016-Dec-24 10:33N 30°14' W 093°15'0 0.0
2016-Dec-24 09:33N 30°14' W 093°15'0 0.0
2016-Dec-24 08:33N 30°14' W 093°15'0 0.0
2016-Dec-24 07:33N 30°14' W 093°15'0 0.0
2016-Dec-24 06:32N 30°14' W 093°15'0 0.0
2016-Dec-24 05:33N 30°14' W 093°15'0 0.0
2016-Dec-24 04:33N 30°14' W 093°15'0 0.0
2016-Dec-24 03:33N 30°14' W 093°15'3 2.7
2016-Dec-24 02:33N 30°12' W 093°17'5 5.1
2016-Dec-24 01:33N 30°07' W 093°20'2 2.4
2016-Dec-24 00:33N 30°05' W 093°20'0 0.0
2016-Dec-23 23:33N 30°05' W 093°20'0 0.0
2016-Dec-23 22:33N 30°05' W 093°20'0 0.0
2016-Dec-23 21:33N 30°05' W 093°20'0 0.1
2016-Dec-23 20:33N 30°05' W 093°20'2 1.7
2016-Dec-23 19:33N 30°06' W 093°18'3 3.5
2016-Dec-23 18:33N 30°03' W 093°16'4 4.3
2016-Dec-23 17:33N 29°60' W 093°13'5 4.8
2016-Dec-23 16:33N 29°56' W 093°10'5 4.5
2016-Dec-23 15:33N 29°56' W 093°04'  

Dump ship's entire track history